Time;durP1;ratioP1;P1;durP2;ratioP2;P2;SDS_P1;SDS_P2;PMS_P1;PMS_P2;Temp;Humidity;BMP_temperature;BMP_pressure;BME280_temperature;BME280_humidity;BME280_pressure;Samples;Min_cycle;Max_cycle;Signal;HPM_P1;HPM_P2
2022/03/30 00:01:14;;;;;;;10.40;8.00;;;13.30;65.90;;;;;;5081477;28;20017;-62
2022/03/30 00:03:40;;;;;;;10.70;7.38;;;13.30;65.90;;;;;;5082808;28;20480;-62
2022/03/30 00:06:06;;;;;;;14.43;7.80;;;13.30;65.90;;;;;;5071626;28;20040;-62
2022/03/30 00:08:32;;;;;;;9.70;7.60;;;13.30;65.80;;;;;;5090620;28;20036;-62
2022/03/30 00:10:59;;;;;;;15.25;7.70;;;13.30;65.90;;;;;;5075510;28;20016;-62
2022/03/30 00:13:25;;;;;;;10.43;7.15;;;13.30;66.00;;;;;;5088357;28;20028;-62
2022/03/30 00:15:51;;;;;;;11.00;7.80;;;13.30;66.00;;;;;;5057851;28;20104;-62
2022/03/30 00:18:18;;;;;;;8.38;7.03;;;13.30;66.00;;;;;;5072436;28;20816;-62
2022/03/30 00:20:44;;;;;;;8.10;7.30;;;13.30;66.00;;;;;;5090333;28;21961;-62
2022/03/30 00:23:10;;;;;;;10.70;7.72;;;13.30;66.00;;;;;;5088473;28;20035;-62
2022/03/30 00:25:36;;;;;;;10.05;7.45;;;13.30;66.00;;;;;;5086546;28;20047;-62
2022/03/30 00:28:02;;;;;;;9.25;7.45;;;13.30;66.00;;;;;;5075302;28;20036;-62
2022/03/30 00:30:28;;;;;;;9.93;7.75;;;13.30;65.90;;;;;;5090489;28;20036;-62
2022/03/30 00:32:55;;;;;;;10.18;6.97;;;13.30;65.90;;;;;;5078271;28;20043;-63
2022/03/30 00:35:20;;;;;;;10.35;7.90;;;13.30;65.70;;;;;;5093143;28;20036;-62
2022/03/30 00:37:46;;;;;;;9.40;7.63;;;13.30;65.70;;;;;;5088659;28;20043;-62
2022/03/30 00:40:15;;;;;;;8.95;7.22;;;13.30;65.70;;;;;;5083128;28;20100;-62
2022/03/30 00:42:40;;;;;;;9.10;7.90;;;13.20;65.70;;;;;;5076903;28;20024;-62
2022/03/30 00:45:25;;;;;;;9.20;7.53;;;13.20;65.70;;;;;;5093242;28;20028;-62
2022/03/30 00:47:52;;;;;;;9.77;7.85;;;13.20;65.80;;;;;;5092931;28;20107;-62
2022/03/30 00:50:19;;;;;;;10.80;8.70;;;13.20;65.80;;;;;;5080507;28;20037;-62
2022/03/30 00:52:56;;;;;;;9.82;7.93;;;13.10;65.90;;;;;;5082906;28;20481;-62
2022/03/30 00:55:23;;;;;;;11.57;8.45;;;13.10;66.00;;;;;;5061934;28;20036;-62
2022/03/30 00:57:51;;;;;;;8.85;7.72;;;13.10;66.10;;;;;;5081445;28;20032;-62
2022/03/30 01:00:17;;;;;;;10.82;8.38;;;13.10;66.10;;;;;;5069061;28;20081;-62
2022/03/30 01:02:45;;;;;;;10.30;8.40;;;13.10;66.30;;;;;;5067255;28;20020;-62
2022/03/30 01:05:12;;;;;;;10.60;8.05;;;13.10;66.40;;;;;;5091614;28;20024;-62
2022/03/30 01:07:38;;;;;;;10.32;8.65;;;13.10;66.40;;;;;;5093044;28;20076;-62
2022/03/30 01:10:05;;;;;;;10.60;8.18;;;13.10;66.50;;;;;;5067136;28;20086;-62
2022/03/30 01:12:32;;;;;;;9.85;8.07;;;13.10;66.40;;;;;;5084783;28;20430;-62
2022/03/30 01:14:59;;;;;;;11.48;8.30;;;13.10;66.40;;;;;;5073193;28;20039;-62
2022/03/30 01:17:25;;;;;;;8.45;7.55;;;13.00;66.40;;;;;;5061252;28;20024;-62
2022/03/30 01:19:50;;;;;;;9.63;8.23;;;13.00;66.70;;;;;;5092512;28;20051;-62
2022/03/30 01:22:16;;;;;;;8.45;7.57;;;12.90;66.70;;;;;;5085882;28;20065;-62
2022/03/30 01:24:42;;;;;;;9.38;8.30;;;12.90;66.90;;;;;;5092771;28;20028;-62
2022/03/30 01:27:08;;;;;;;10.98;8.18;;;12.80;66.90;;;;;;5078802;28;20067;-62
2022/03/30 01:32:28;;;;;;;9.57;8.07;;;12.80;67.20;;;;;;5080997;28;20032;-62
2022/03/30 01:34:57;;;;;;;10.30;8.50;;;12.80;67.60;;;;;;5094757;28;20499;-62
2022/03/30 01:37:24;;;;;;;10.40;8.88;;;12.70;67.60;;;;;;5091950;28;20040;-62
2022/03/30 01:39:50;;;;;;;9.77;8.43;;;12.70;67.60;;;;;;5092603;28;20035;-62
2022/03/30 01:42:17;;;;;;;10.80;8.55;;;12.60;67.60;;;;;;5090770;28;20182;-62
2022/03/30 01:44:42;;;;;;;11.63;9.60;;;12.50;67.90;;;;;;5075794;28;20424;-62
2022/03/30 01:47:10;;;;;;;10.43;9.30;;;12.40;68.10;;;;;;5084734;28;20032;-62
2022/03/30 01:49:36;;;;;;;11.05;8.85;;;12.40;68.40;;;;;;5092033;28;20115;-62
2022/03/30 01:52:03;;;;;;;11.27;9.27;;;12.30;68.60;;;;;;5072731;28;20218;-62
2022/03/30 01:54:33;;;;;;;11.32;9.40;;;12.30;68.80;;;;;;5066558;28;20148;-62
2022/03/30 01:56:59;;;;;;;10.85;9.40;;;12.30;69.00;;;;;;5086909;28;20501;-62
2022/03/30 01:59:25;;;;;;;12.05;9.02;;;12.30;69.10;;;;;;5090775;28;20016;-62
2022/03/30 02:01:52;;;;;;;14.45;11.07;;;12.30;69.30;;;;;;5072228;28;20055;-62
2022/03/30 02:04:18;;;;;;;15.13;11.65;;;12.30;69.40;;;;;;5072055;28;20033;-62
2022/03/30 02:06:43;;;;;;;12.63;10.73;;;12.40;69.50;;;;;;5072772;28;20069;-62
2022/03/30 02:09:12;;;;;;;13.10;10.73;;;12.40;69.60;;;;;;5073475;28;20480;-62
2022/03/30 02:11:38;;;;;;;15.77;10.50;;;12.40;69.60;;;;;;5078138;28;20035;-62
2022/03/30 02:14:05;;;;;;;15.50;10.93;;;12.50;69.50;;;;;;5087075;28;20040;-62
2022/03/30 02:16:31;;;;;;;13.57;10.90;;;12.40;69.50;;;;;;5073945;28;20031;-62
2022/03/30 02:18:57;;;;;;;12.60;10.38;;;12.50;69.60;;;;;;5060656;28;20029;-62
2022/03/30 02:21:24;;;;;;;12.68;10.45;;;12.50;70.20;;;;;;5074423;28;20021;-62
2022/03/30 02:23:51;;;;;;;15.05;11.77;;;12.50;69.50;;;;;;5095981;28;20020;-62
2022/03/30 02:26:18;;;;;;;13.85;11.73;;;12.50;69.60;;;;;;5077363;28;20121;-62
2022/03/30 02:28:45;;;;;;;13.75;11.50;;;12.50;69.60;;;;;;5078329;28;20150;-62
2022/03/30 02:31:11;;;;;;;15.05;11.63;;;12.60;69.60;;;;;;5096030;28;20468;-62
2022/03/30 02:33:37;;;;;;;12.88;10.13;;;12.50;69.50;;;;;;5072780;28;20067;-62
2022/03/30 02:36:04;;;;;;;13.05;10.57;;;12.50;69.60;;;;;;5095577;28;20062;-62
2022/03/30 02:38:30;;;;;;;11.68;10.32;;;12.60;69.60;;;;;;5067817;28;20460;-62
2022/03/30 02:40:56;;;;;;;12.73;10.15;;;12.50;69.50;;;;;;5077031;28;20032;-62
2022/03/30 02:43:22;;;;;;;12.90;10.60;;;12.60;69.60;;;;;;5089868;28;20444;-62
2022/03/30 02:45:49;;;;;;;13.13;10.90;;;12.60;69.50;;;;;;5081419;28;20090;-62
2022/03/30 02:48:18;;;;;;;12.98;11.07;;;12.60;69.40;;;;;;5085482;28;20056;-62
2022/03/30 02:50:50;;;;;;;12.68;10.40;;;12.60;69.50;;;;;;5090606;28;20059;-62
2022/03/30 02:53:16;;;;;;;13.10;10.10;;;12.60;69.30;;;;;;5070956;28;20473;-62
2022/03/30 02:55:42;;;;;;;11.35;9.50;;;12.60;69.30;;;;;;5080889;28;20028;-62
2022/03/30 02:58:10;;;;;;;11.55;9.68;;;12.60;69.30;;;;;;5089581;28;20075;-62
2022/03/30 03:00:36;;;;;;;12.85;10.00;;;12.60;69.40;;;;;;5069811;28;20469;-62
2022/03/30 03:03:03;;;;;;;12.68;10.02;;;12.60;69.50;;;;;;5090071;28;20379;-62
2022/03/30 03:05:32;;;;;;;11.43;10.23;;;12.60;69.60;;;;;;5073512;28;20107;-62
2022/03/30 03:08:01;;;;;;;13.07;10.18;;;12.60;69.50;;;;;;5084062;28;20048;-62
2022/03/30 03:10:28;;;;;;;11.57;10.45;;;12.60;69.70;;;;;;5088216;28;20449;-62
2022/03/30 03:12:54;;;;;;;12.68;10.25;;;12.60;69.70;;;;;;5090163;28;20446;-62
2022/03/30 03:15:21;;;;;;;13.55;11.07;;;12.60;69.60;;;;;;5069326;28;20033;-62
2022/03/30 03:17:47;;;;;;;13.70;11.02;;;12.60;69.50;;;;;;5071067;28;20040;-62
2022/03/30 03:20:13;;;;;;;12.43;10.68;;;12.60;69.40;;;;;;5078643;28;20060;-62
2022/03/30 03:22:39;;;;;;;14.07;11.10;;;12.70;69.40;;;;;;5092751;28;20054;-62
2022/03/30 03:25:06;;;;;;;13.73;10.18;;;12.70;69.40;;;;;;5082783;28;20036;-62
2022/03/30 03:27:32;;;;;;;13.20;10.40;;;12.60;69.40;;;;;;5083199;28;20035;-62
2022/03/30 03:29:59;;;;;;;15.13;11.50;;;12.60;69.40;;;;;;5093932;28;20028;-62
2022/03/30 03:32:25;;;;;;;12.73;10.80;;;12.60;69.40;;;;;;5092968;28;20618;-62
2022/03/30 03:34:50;;;;;;;13.15;10.48;;;12.60;69.40;;;;;;5070899;28;20033;-62
2022/03/30 03:37:16;;;;;;;13.70;10.25;;;12.60;69.40;;;;;;5066942;28;20067;-62
2022/03/30 03:39:42;;;;;;;13.75;10.55;;;12.60;69.50;;;;;;5094550;28;20024;-62
2022/03/30 03:42:08;;;;;;;15.10;11.30;;;12.60;69.50;;;;;;5094348;28;20458;-62
2022/03/30 03:44:34;;;;;;;14.95;10.95;;;12.60;69.70;;;;;;5071440;28;20029;-62
2022/03/30 03:47:00;;;;;;;15.18;11.90;;;12.60;69.70;;;;;;5070973;28;20035;-62
2022/03/30 03:49:26;;;;;;;13.57;11.20;;;12.60;69.80;;;;;;5088945;28;20021;-62
2022/03/30 03:51:52;;;;;;;14.68;11.00;;;12.60;69.80;;;;;;5071742;28;20124;-62
2022/03/30 03:54:17;;;;;;;13.80;12.27;;;12.60;69.80;;;;;;5072101;28;20035;-62
2022/03/30 03:56:43;;;;;;;13.07;11.15;;;12.50;69.80;;;;;;5081959;28;20023;-62
2022/03/30 03:59:10;;;;;;;14.50;12.52;;;12.50;69.80;;;;;;5084791;28;20680;-62
2022/03/30 04:01:36;;;;;;;14.45;12.30;;;12.50;69.70;;;;;;5075320;28;20108;-62
2022/03/30 04:04:02;;;;;;;17.15;12.80;;;12.60;69.70;;;;;;5093563;28;20024;-62
2022/03/30 04:06:29;;;;;;;18.48;14.60;;;12.50;69.60;;;;;;5069400;28;20043;-62
2022/03/30 04:08:55;;;;;;;16.30;13.07;;;12.50;69.80;;;;;;5076503;28;20060;-62
2022/03/30 04:11:21;;;;;;;15.57;12.95;;;12.50;70.00;;;;;;5090403;28;20025;-62
2022/03/30 04:13:46;;;;;;;19.80;14.50;;;12.50;70.20;;;;;;5093738;28;20024;-62
2022/03/30 04:16:13;;;;;;;18.70;14.93;;;12.50;70.20;;;;;;5071613;28;20477;-62
2022/03/30 04:18:38;;;;;;;20.00;15.82;;;12.50;70.20;;;;;;5082391;28;20016;-62
2022/03/30 04:21:04;;;;;;;21.73;15.32;;;12.50;70.20;;;;;;5088290;28;20029;-62
2022/03/30 04:23:30;;;;;;;18.20;14.50;;;12.50;70.00;;;;;;5068994;28;20021;-62
2022/03/30 04:25:55;;;;;;;20.42;15.75;;;12.50;69.90;;;;;;5081904;28;20077;-62
2022/03/30 04:28:21;;;;;;;19.25;16.40;;;12.50;70.10;;;;;;5093705;28;20095;-62
2022/03/30 04:30:47;;;;;;;16.80;14.70;;;12.50;70.30;;;;;;5085398;28;20060;-62
2022/03/30 04:33:12;;;;;;;17.23;14.73;;;12.50;71.00;;;;;;5086793;28;20103;-62
2022/03/30 04:35:38;;;;;;;17.98;15.95;;;12.50;70.40;;;;;;5083624;28;20037;-62
2022/03/30 04:38:05;;;;;;;22.55;17.02;;;12.50;70.30;;;;;;5085063;28;20519;-62
2022/03/30 04:40:32;;;;;;;20.45;15.32;;;12.60;70.40;;;;;;5062309;28;20515;-62
2022/03/30 04:42:57;;;;;;;18.13;16.00;;;12.60;70.20;;;;;;5085199;28;20034;-62
2022/03/30 04:45:23;;;;;;;21.88;16.52;;;12.60;70.10;;;;;;5093200;28;20421;-62
2022/03/30 04:47:49;;;;;;;20.08;16.13;;;12.60;70.10;;;;;;5087886;28;20016;-63
2022/03/30 04:50:15;;;;;;;22.73;16.23;;;12.70;70.30;;;;;;5091272;28;20035;-62
2022/03/30 04:52:42;;;;;;;26.42;17.73;;;12.70;70.10;;;;;;5078147;28;20033;-62
2022/03/30 04:55:09;;;;;;;19.27;16.23;;;12.80;70.30;;;;;;5060470;28;20029;-62
2022/03/30 04:57:36;;;;;;;20.75;16.73;;;12.80;70.20;;;;;;5076043;28;20021;-62
2022/03/30 05:00:02;;;;;;;18.77;16.40;;;12.80;70.30;;;;;;5081009;28;20468;-62
2022/03/30 05:02:32;;;;;;;17.75;15.85;;;12.90;70.20;;;;;;5092902;28;20032;-62
2022/03/30 05:04:57;;;;;;;19.92;15.73;;;12.90;70.00;;;;;;5075723;28;20067;-62
2022/03/30 05:07:24;;;;;;;16.52;14.68;;;13.00;69.90;;;;;;5069536;28;20055;-62
2022/03/30 05:09:50;;;;;;;18.92;15.35;;;13.00;69.70;;;;;;5090250;28;20024;-62
2022/03/30 05:12:16;;;;;;;20.38;14.60;;;13.00;69.50;;;;;;5065101;28;20047;-62
2022/03/30 05:14:41;;;;;;;18.10;14.32;;;13.10;69.50;;;;;;5062579;28;20028;-62
2022/03/30 05:17:08;;;;;;;16.38;14.20;;;13.20;69.20;;;;;;5076935;28;20030;-62
2022/03/30 05:19:34;;;;;;;16.67;14.23;;;13.20;68.90;;;;;;5071554;28;21666;-62
2022/03/30 05:22:00;;;;;;;19.00;14.50;;;13.30;68.90;;;;;;5066663;28;20021;-62
2022/03/30 05:24:26;;;;;;;19.67;14.35;;;13.30;68.70;;;;;;5069200;28;20031;-62
2022/03/30 05:26:53;;;;;;;17.38;14.10;;;13.40;68.50;;;;;;5065383;28;20111;-62
2022/03/30 05:29:20;;;;;;;15.23;13.63;;;13.40;68.30;;;;;;5070634;28;20112;-62
2022/03/30 05:31:45;;;;;;;16.85;13.25;;;13.50;68.20;;;;;;5060620;28;20485;-62
2022/03/30 05:34:11;;;;;;;16.50;12.82;;;13.50;68.00;;;;;;5065553;28;20028;-62
2022/03/30 05:36:37;;;;;;;14.35;12.65;;;13.50;67.90;;;;;;5063775;28;20024;-62
2022/03/30 05:39:03;;;;;;;20.38;11.98;;;13.50;67.80;;;;;;5071530;28;20036;-62
2022/03/30 05:41:30;;;;;;;15.80;13.18;;;13.50;67.80;;;;;;5068425;28;20043;-62
2022/03/30 05:43:56;;;;;;;15.93;12.50;;;13.60;67.70;;;;;;5071062;28;20476;-62
2022/03/30 05:46:22;;;;;;;19.70;14.30;;;13.60;67.60;;;;;;5066664;28;20024;-62
2022/03/30 05:48:47;;;;;;;14.32;12.82;;;13.60;67.60;;;;;;5079208;28;20522;-62
2022/03/30 05:51:13;;;;;;;15.40;13.00;;;13.60;67.60;;;;;;5066961;28;20369;-62
2022/03/30 05:53:39;;;;;;;16.08;12.50;;;13.60;67.60;;;;;;5059304;28;20473;-62
2022/03/30 05:56:05;;;;;;;14.73;12.10;;;13.60;67.60;;;;;;5064041;28;20033;-63
2022/03/30 05:58:31;;;;;;;13.55;11.82;;;13.70;67.70;;;;;;5058069;28;20199;-62
2022/03/30 06:00:57;;;;;;;17.60;12.70;;;13.70;67.60;;;;;;5056335;28;20043;-62
2022/03/30 06:03:23;;;;;;;14.75;13.10;;;13.70;67.50;;;;;;5060165;28;20020;-62
2022/03/30 06:05:50;;;;;;;17.27;13.65;;;13.70;67.40;;;;;;5060289;28;21026;-62
2022/03/30 06:08:16;;;;;;;14.75;12.77;;;13.70;67.40;;;;;;5063506;28;20033;-62
2022/03/30 06:10:42;;;;;;;13.82;12.25;;;13.70;67.50;;;;;;5054229;28;20024;-62
2022/03/30 06:13:08;;;;;;;16.35;12.95;;;13.80;67.50;;;;;;5058612;28;20038;-62
2022/03/30 06:15:35;;;;;;;15.63;12.45;;;13.80;67.40;;;;;;5056998;28;20029;-62
2022/03/30 06:18:03;;;;;;;14.93;12.30;;;13.90;67.60;;;;;;5057683;28;20027;-62
2022/03/30 06:20:29;;;;;;;18.70;12.90;;;13.90;67.40;;;;;;5058117;28;20039;-62
2022/03/30 06:22:55;;;;;;;14.32;12.18;;;13.90;67.10;;;;;;5056357;28;20025;-62
2022/03/30 06:25:24;;;;;;;13.52;11.40;;;14.00;67.20;;;;;;5052049;28;20035;-62
2022/03/30 06:27:50;;;;;;;14.00;12.50;;;14.00;67.10;;;;;;5061437;28;20385;-62
2022/03/30 06:30:16;;;;;;;17.58;13.68;;;14.00;67.10;;;;;;5068464;28;20028;-62
2022/03/30 06:32:43;;;;;;;16.13;12.35;;;13.90;67.10;;;;;;5062856;28;20116;-62
2022/03/30 06:35:09;;;;;;;16.02;14.00;;;13.90;67.20;;;;;;5060669;28;20044;-62
2022/03/30 06:37:35;;;;;;;17.23;14.95;;;14.00;67.50;;;;;;5055866;28;20074;-62
2022/03/30 06:40:01;;;;;;;17.30;14.40;;;14.00;67.30;;;;;;5056883;28;20025;-62
2022/03/30 06:42:27;;;;;;;18.52;15.43;;;14.00;67.30;;;;;;5051531;28;20393;-63
2022/03/30 06:44:53;;;;;;;17.38;14.77;;;14.00;67.30;;;;;;5053815;28;20565;-62
2022/03/30 06:47:19;;;;;;;17.88;13.95;;;14.10;67.30;;;;;;5063310;28;20048;-62
2022/03/30 06:49:44;;;;;;;15.40;12.02;;;14.10;67.30;;;;;;5059700;28;20044;-63
2022/03/30 06:52:12;;;;;;;13.68;11.70;;;14.10;67.30;;;;;;5056597;28;20063;-62
2022/03/30 06:54:38;;;;;;;15.13;11.93;;;14.10;66.90;;;;;;5053794;28;20470;-62
2022/03/30 06:57:05;;;;;;;14.85;11.85;;;14.10;66.80;;;;;;5049172;28;20170;-63
2022/03/30 06:59:31;;;;;;;14.63;12.43;;;14.20;67.20;;;;;;5043250;28;20057;-62
2022/03/30 07:01:58;;;;;;;14.00;12.50;;;14.20;66.80;;;;;;5048829;28;20116;-63
2022/03/30 07:04:25;;;;;;;14.57;12.90;;;14.20;66.80;;;;;;5052803;28;20499;-62
2022/03/30 07:12:34;;;;;;;13.45;11.70;;;14.40;66.50;;;;;;5043220;28;20036;-62
2022/03/30 07:15:01;;;;;;;14.25;12.52;;;14.40;66.40;;;;;;5049554;28;20122;-63
2022/03/30 07:17:27;;;;;;;16.55;12.60;;;14.50;66.20;;;;;;5051086;28;20044;-62
2022/03/30 07:19:53;;;;;;;13.73;12.23;;;14.60;66.00;;;;;;5052650;28;20058;-61
2022/03/30 07:22:19;;;;;;;15.65;12.68;;;14.60;65.70;;;;;;5053334;28;20440;-61
2022/03/30 07:24:45;;;;;;;14.73;12.65;;;14.70;65.50;;;;;;5054936;28;20025;-60
2022/03/30 07:27:11;;;;;;;14.10;12.38;;;14.80;65.40;;;;;;5054635;28;20036;-61
2022/03/30 07:29:37;;;;;;;14.98;12.43;;;14.80;65.10;;;;;;5059335;28;20066;-61
2022/03/30 07:32:03;;;;;;;15.10;13.23;;;14.90;64.80;;;;;;5052379;28;20115;-61
2022/03/30 07:34:30;;;;;;;14.38;12.88;;;15.00;64.70;;;;;;5050180;28;20032;-60
2022/03/30 07:36:57;;;;;;;15.00;13.48;;;15.00;64.50;;;;;;5051975;28;20052;-62
2022/03/30 07:39:23;;;;;;;16.42;13.68;;;15.10;64.40;;;;;;5055378;28;20749;-62
2022/03/30 07:41:49;;;;;;;19.05;14.27;;;15.10;64.40;;;;;;5043555;28;20090;-61
2022/03/30 07:44:15;;;;;;;14.70;12.82;;;15.20;64.50;;;;;;5048931;28;20029;-60
2022/03/30 07:46:41;;;;;;;16.35;14.40;;;15.20;64.30;;;;;;5046305;28;21682;-59
2022/03/30 07:49:07;;;;;;;16.77;14.85;;;15.20;64.10;;;;;;5055484;28;20032;-60
2022/03/30 07:51:33;;;;;;;16.50;14.15;;;15.30;64.20;;;;;;5049336;28;20016;-61
2022/03/30 07:53:59;;;;;;;16.77;14.45;;;15.30;64.30;;;;;;5042256;28;20031;-62
2022/03/30 07:56:25;;;;;;;16.70;14.40;;;15.40;64.10;;;;;;5041378;28;20041;-60
2022/03/30 07:58:53;;;;;;;16.48;14.68;;;15.40;64.00;;;;;;5050120;28;20025;-60
2022/03/30 08:01:20;;;;;;;18.83;14.35;;;15.50;63.90;;;;;;5054607;28;20643;-60
2022/03/30 08:03:46;;;;;;;14.73;13.07;;;15.60;63.80;;;;;;5051139;28;20496;-61
2022/03/30 08:06:12;;;;;;;15.02;12.85;;;15.70;63.10;;;;;;5051556;28;20025;-60
2022/03/30 08:08:39;;;;;;;15.45;12.10;;;15.80;62.80;;;;;;5053829;28;20050;-61
2022/03/30 08:11:05;;;;;;;14.88;13.27;;;15.80;62.40;;;;;;5050715;28;20041;-61
2022/03/30 08:13:32;;;;;;;14.93;12.70;;;15.90;62.20;;;;;;5052854;28;21129;-60
2022/03/30 08:15:57;;;;;;;14.80;13.15;;;15.90;61.90;;;;;;5049880;28;20064;-60
2022/03/30 08:18:23;;;;;;;16.15;13.70;;;15.90;61.80;;;;;;5052335;28;20051;-60
2022/03/30 08:23:36;;;;;;;12.00;10.80;;;15.90;61.70;;;;;;5057161;28;20031;-60
2022/03/30 08:26:03;;;;;;;21.67;17.25;;;15.90;61.60;;;;;;5047615;28;20465;-60
2022/03/30 08:28:29;;;;;;;14.02;12.40;;;15.90;61.60;;;;;;5054404;28;20124;-60
2022/03/30 08:30:55;;;;;;;13.82;11.90;;;15.90;61.50;;;;;;5048824;28;20025;-61
2022/03/30 08:33:23;;;;;;;15.68;11.93;;;16.00;61.40;;;;;;5043975;28;20135;-60
2022/03/30 08:35:50;;;;;;;12.95;11.65;;;16.00;61.40;;;;;;5045504;28;20044;-60
2022/03/30 08:38:17;;;;;;;13.85;12.35;;;16.00;61.10;;;;;;5045000;28;20106;-59
2022/03/30 08:40:44;;;;;;;17.23;13.50;;;16.10;60.80;;;;;;5059195;28;20028;-59
2022/03/30 08:43:09;;;;;;;15.55;13.43;;;16.00;60.80;;;;;;5048321;28;20048;-60
2022/03/30 08:45:35;;;;;;;16.60;14.07;;;16.00;60.60;;;;;;5047922;28;20556;-61
2022/03/30 08:48:02;;;;;;;16.50;13.52;;;16.00;60.70;;;;;;5049185;28;20028;-61
2022/03/30 08:50:29;;;;;;;14.85;12.90;;;15.90;60.80;;;;;;5039288;28;20083;-60
2022/03/30 08:52:58;;;;;;;14.63;12.80;;;15.90;61.10;;;;;;5049368;28;20029;-60
2022/03/30 08:55:24;;;;;;;14.98;13.30;;;15.90;61.30;;;;;;5041092;28;20124;-61
2022/03/30 08:57:50;;;;;;;14.68;12.88;;;15.80;61.40;;;;;;5033429;28;20029;-60
2022/03/30 09:00:20;;;;;;;13.50;12.20;;;15.80;61.50;;;;;;5046090;28;20101;-60
2022/03/30 09:02:55;;;;;;;14.77;12.88;;;15.80;61.70;;;;;;5048562;28;20052;-59
2022/03/30 09:05:26;;;;;;;13.70;12.15;;;15.80;61.60;;;;;;5051016;28;20028;-59
2022/03/30 09:07:57;;;;;;;13.88;12.45;;;15.70;61.40;;;;;;5046692;28;20028;-59
2022/03/30 09:10:24;;;;;;;14.70;12.85;;;15.70;61.60;;;;;;5055328;28;20090;-59
2022/03/30 09:12:52;;;;;;;14.18;12.68;;;15.60;61.70;;;;;;5051082;28;20137;-59
2022/03/30 09:15:20;;;;;;;14.70;12.90;;;15.50;61.80;;;;;;5045181;28;20388;-58
2022/03/30 09:17:46;;;;;;;13.45;12.05;;;15.50;61.90;;;;;;5050589;28;20033;-58
2022/03/30 09:20:16;;;;;;;14.90;13.02;;;15.50;62.80;;;;;;5050755;28;20466;-59
2022/03/30 09:22:51;;;;;;;13.05;11.75;;;15.50;62.10;;;;;;5046600;28;20214;-59
2022/03/30 09:25:18;;;;;;;13.75;12.25;;;15.60;62.10;;;;;;5054231;28;20127;-59
2022/03/30 09:27:45;;;;;;;14.82;13.13;;;15.60;62.00;;;;;;5058141;28;20036;-59
2022/03/30 09:30:15;;;;;;;15.63;12.88;;;15.60;62.10;;;;;;5050742;28;20052;-59
2022/03/30 09:32:42;;;;;;;14.23;12.65;;;15.60;62.00;;;;;;5052615;28;20037;-59
2022/03/30 09:35:32;;;;;;;15.15;13.18;;;15.60;61.80;;;;;;5050129;28;20033;-58
2022/03/30 09:38:04;;;;;;;12.32;11.02;;;15.70;61.90;;;;;;5043570;28;20044;-58
2022/03/30 09:40:42;;;;;;;14.52;12.05;;;15.70;62.10;;;;;;5036532;28;20475;-58
2022/03/30 09:43:27;;;;;;;12.05;10.80;;;15.70;61.80;;;;;;5041744;28;20055;-59
2022/03/30 09:46:02;;;;;;;13.77;10.73;;;15.70;61.70;;;;;;5040041;28;20127;-59
2022/03/30 09:48:30;;;;;;;13.55;10.32;;;15.70;61.60;;;;;;5042099;28;20063;-59
2022/03/30 09:50:58;;;;;;;12.07;10.85;;;15.80;61.60;;;;;;5047602;28;20068;-59
2022/03/30 09:53:27;;;;;;;11.45;10.27;;;15.80;61.20;;;;;;5048675;28;20047;-59
2022/03/30 09:56:02;;;;;;;11.30;10.10;;;15.80;61.20;;;;;;5052320;28;20125;-59
2022/03/30 09:58:30;;;;;;;11.15;9.85;;;15.80;61.00;;;;;;5046380;28;20471;-57
2022/03/30 10:01:29;;;;;;;12.20;9.73;;;15.80;60.90;;;;;;5039893;28;20039;-59
2022/03/30 10:04:00;;;;;;;10.60;9.50;;;15.80;60.70;;;;;;5045260;28;20504;-60
2022/03/30 10:06:28;;;;;;;10.90;8.50;;;15.90;60.70;;;;;;5051322;28;20031;-62
2022/03/30 10:08:55;;;;;;;10.20;8.68;;;15.90;60.40;;;;;;5048172;28;20723;-60
2022/03/30 10:11:23;;;;;;;11.18;9.48;;;15.90;60.20;;;;;;5050976;28;20036;-61
2022/03/30 10:13:55;;;;;;;10.68;8.77;;;16.00;59.90;;;;;;5054178;28;20102;-60
2022/03/30 10:16:22;;;;;;;12.52;9.27;;;16.00;59.70;;;;;;5052471;28;21666;-60
2022/03/30 10:18:51;;;;;;;9.07;8.18;;;15.90;59.60;;;;;;5053408;28;20747;-60
2022/03/30 10:21:54;;;;;;;9.63;8.00;;;16.00;59.60;;;;;;5048873;28;20496;-60
2022/03/30 10:24:37;;;;;;;10.30;8.50;;;15.90;59.60;;;;;;5050056;28;20515;-62
2022/03/30 10:27:42;;;;;;;9.35;8.27;;;15.90;59.30;;;;;;5048875;28;20012;-60
2022/03/30 10:30:11;;;;;;;9.27;8.27;;;16.00;59.30;;;;;;5046724;28;20052;-62
2022/03/30 10:32:38;;;;;;;9.68;8.02;;;16.00;59.30;;;;;;5038370;28;20110;-62
2022/03/30 10:35:10;;;;;;;9.27;8.30;;;16.10;59.00;;;;;;5048309;28;20028;-61
2022/03/30 10:37:58;;;;;;;8.95;7.97;;;16.10;58.90;;;;;;5036424;28;20052;-61
2022/03/30 10:40:28;;;;;;;10.20;8.77;;;16.10;58.80;;;;;;5052162;28;21387;-61
2022/03/30 10:42:54;;;;;;;9.70;8.43;;;16.20;58.60;;;;;;5051913;28;20104;-61
2022/03/30 10:46:02;;;;;;;10.00;8.45;;;16.20;58.80;;;;;;5047133;28;20037;-61
2022/03/30 10:48:31;;;;;;;9.57;7.90;;;16.30;58.70;;;;;;5039634;28;20558;-61
2022/03/30 10:51:08;;;;;;;9.30;7.53;;;16.30;58.40;;;;;;5052266;28;20097;-60
2022/03/30 10:53:34;;;;;;;9.35;7.85;;;16.30;58.00;;;;;;5052342;28;20090;-60
2022/03/30 10:56:15;;;;;;;9.20;8.18;;;16.40;57.90;;;;;;5048514;28;20045;-61
2022/03/30 10:58:52;;;;;;;9.02;8.07;;;16.40;57.70;;;;;;5044484;28;20031;-59
2022/03/30 11:01:28;;;;;;;9.50;8.20;;;16.50;57.50;;;;;;5049101;28;20048;-60
2022/03/30 11:04:18;;;;;;;9.02;7.85;;;16.50;57.30;;;;;;5056268;28;20516;-60
2022/03/30 11:07:13;;;;;;;8.90;8.00;;;16.60;57.10;;;;;;5046648;28;20115;-60
2022/03/30 11:09:40;;;;;;;9.45;7.82;;;16.60;57.00;;;;;;5049157;28;20037;-62
2022/03/30 11:12:13;;;;;;;10.07;8.25;;;16.60;56.90;;;;;;5048413;28;20051;-61
2022/03/30 11:14:43;;;;;;;10.70;8.02;;;16.60;56.70;;;;;;5047207;28;20111;-61
2022/03/30 11:17:14;;;;;;;9.68;7.95;;;16.60;56.90;;;;;;5044699;28;20059;-60
2022/03/30 11:19:55;;;;;;;10.10;8.43;;;16.50;56.90;;;;;;5046240;28;20036;-61
2022/03/30 11:22:33;;;;;;;9.95;7.85;;;16.50;56.80;;;;;;5042251;28;20066;-62
2022/03/30 11:25:22;;;;;;;9.30;8.02;;;16.50;57.00;;;;;;5037142;28;20039;-63
2022/03/30 11:27:57;;;;;;;9.20;8.20;;;16.50;57.10;;;;;;5046324;28;20090;-63
2022/03/30 11:30:24;;;;;;;8.50;7.70;;;16.40;57.10;;;;;;5040273;28;21155;-62
2022/03/30 11:32:55;;;;;;;8.30;7.28;;;16.40;57.30;;;;;;5047776;28;22818;-61
2022/03/30 11:35:25;;;;;;;11.85;8.60;;;16.40;57.20;;;;;;5044612;28;20042;-62
2022/03/30 11:37:54;;;;;;;10.77;8.38;;;16.40;57.30;;;;;;5038954;28;20080;-59
2022/03/30 11:40:22;;;;;;;8.88;7.85;;;16.40;57.40;;;;;;5041026;28;20037;-61
2022/03/30 11:42:57;;;;;;;9.15;8.27;;;16.40;57.50;;;;;;5048401;28;20033;-62
2022/03/30 11:45:26;;;;;;;9.55;8.48;;;16.40;57.60;;;;;;5044619;28;20025;-63
2022/03/30 11:47:56;;;;;;;8.93;8.02;;;16.30;57.50;;;;;;5045973;28;20043;-62
2022/03/30 11:50:39;;;;;;;13.95;8.43;;;16.30;57.50;;;;;;5042852;28;20035;-61
2022/03/30 11:53:13;;;;;;;9.63;7.88;;;16.40;57.40;;;;;;5041612;28;20650;-60
2022/03/30 11:55:53;;;;;;;10.20;8.02;;;16.30;57.40;;;;;;5045161;28;20029;-60
2022/03/30 11:58:27;;;;;;;9.50;8.50;;;16.40;57.40;;;;;;5045353;28;20033;-60
2022/03/30 12:00:56;;;;;;;8.98;7.55;;;16.40;57.30;;;;;;5042982;28;20032;-61
2022/03/30 12:03:23;;;;;;;9.60;8.52;;;16.40;57.10;;;;;;5039153;28;20354;-59
2022/03/30 12:05:55;;;;;;;9.40;7.68;;;16.40;57.10;;;;;;5038828;28;21463;-61
2022/03/30 12:08:22;;;;;;;9.63;8.63;;;16.40;57.00;;;;;;5049624;28;20034;-60
2022/03/30 12:10:49;;;;;;;9.93;8.50;;;16.40;57.10;;;;;;5050112;28;20024;-60
2022/03/30 12:13:24;;;;;;;9.68;8.25;;;16.40;57.10;;;;;;5059371;28;20036;-60
2022/03/30 12:16:09;;;;;;;10.45;8.05;;;16.40;57.00;;;;;;5052142;28;20094;-60
2022/03/30 12:18:50;;;;;;;9.02;7.82;;;16.50;57.10;;;;;;5049156;28;20020;-61
2022/03/30 12:21:26;;;;;;;11.00;8.52;;;16.50;57.00;;;;;;5055469;28;20092;-60
2022/03/30 12:24:01;;;;;;;9.43;8.25;;;16.50;57.00;;;;;;5051350;28;20483;-60
2022/03/30 12:26:28;;;;;;;9.88;7.90;;;16.50;57.10;;;;;;5047607;28;20036;-60
2022/03/30 12:29:03;;;;;;;11.05;9.00;;;16.50;57.20;;;;;;5045915;28;20031;-61
2022/03/30 12:31:36;;;;;;;13.20;9.25;;;16.50;57.20;;;;;;5044207;28;20620;-61
2022/03/30 12:34:17;;;;;;;10.30;9.25;;;16.50;57.30;;;;;;5056020;28;20056;-61
2022/03/30 12:36:49;;;;;;;13.57;9.27;;;16.50;57.10;;;;;;5052304;28;20378;-61
2022/03/30 12:39:40;;;;;;;10.48;9.38;;;16.50;57.10;;;;;;5052169;28;20040;-60
2022/03/30 12:42:36;;;;;;;10.70;8.90;;;16.50;57.10;;;;;;5046900;28;20474;-61
2022/03/30 12:45:10;;;;;;;10.75;9.02;;;16.60;57.20;;;;;;5045749;28;20547;-61
2022/03/30 12:47:55;;;;;;;11.93;9.60;;;16.60;57.20;;;;;;5042455;28;20024;-60
2022/03/30 12:50:32;;;;;;;10.00;9.00;;;16.60;57.10;;;;;;5044894;28;20115;-60
2022/03/30 12:53:15;;;;;;;9.73;8.73;;;16.60;57.10;;;;;;5045525;28;20044;-59